Latest Coastal Weather Observations for Samuel Hill

IDQ60701

Issued at 1:51 pm EST Tuesday 26 September 2017 (issued every 10 minutes, with the page automatically refreshed every 10 minutes)

About coastal observations | Map of coastal stations | Coastal observations for QLD | Marine services | Other Formats
Station Details ID: 033308 Name: SAMUEL HILL AERO Lat: -22.74 Lon: 150.66 Height: 31.0 m
Data from the previous 72 hours. | See also: Recent months at Samuel Hill
Date/Time
EST
Temp
°C
Wind Pressure Rain since
9am
mm
Weather Cloud Vis
km
Sea
Height
m
Swell
Dir  Spd
kts
Gust
kts
hPa Trend Height
m
Period
s
Dir
26/01:30pm 27.5 NNW 11 17 1013.1 - 0.0 - - 10 - - - -
26/01:00pm 27.9 NNW 11 16 1013.5 - 0.0 - - 10 - - - -
26/12:30pm 27.7 NW 11 16 1013.8 - 0.0 - - 10 - - - -
26/12:00pm 26.9 NNW 11 17 1014.2 - 0.0 - - 10 - - - -
26/11:30am 26.9 NNW 11 19 1014.7 - 0.0 - - 10 - - - -
26/11:00am 26.5 N 12 18 1015.3 - 0.0 - - 10 - - - -
26/10:30am 26.2 NNW 11 16 1016.1 - 0.0 - - 10 - - - -
26/10:00am 26.4 N 9 13 1016.5 - 0.0 - - 10 - - - -
26/09:30am 25.2 N 10 15 1016.7 - 0.0 - - 10 - - - -
26/09:00am 25.4 NNW 9 14 1016.9 - 0.0 - - 10 - - - -
26/08:30am 24.1 N 12 18 1016.7 - 0.0 - - 10 - - - -
26/08:00am 23.3 N 8 12 1016.5 - 0.0 - - 10 - - - -
26/07:30am 19.6 NNE 2 5 1016.3 - 0.0 - Partly cloudy - - - - -
26/07:00am 15.8 CALM 0 0 1016.3 - 0.0 - - - - - - -
26/06:30am 12.3 CALM 0 0 1015.8 - 0.0 - - - - - - -
26/06:00am 10.5 CALM 0 0 1015.5 - 0.0 - Mostly clear - - - - -
26/05:52am 10.4 CALM 0 0 1015.4 - 0.0 - Partly cloudy - - - - -
26/05:30am 10.4 CALM 0 0 1015.1 - 0.0 - Partly cloudy - - - - -
26/05:00am 10.7 CALM 0 0 1014.8 - 0.0 - Cloudy - - - - -
26/04:30am 10.9 CALM 0 0 1014.6 - 0.0 - Partly cloudy - - - - -
26/04:00am 10.4 CALM 0 0 1014.4 - 0.0 - Partly cloudy - - - - -
26/03:46am 10.7 CALM 0 0 1014.2 - 0.0 - Partly cloudy - - - - -
26/03:30am 11.1 CALM 0 0 1014.1 - 0.0 - Partly cloudy - - - - -
26/03:00am 11.0 CALM 0 0 1014.2 - 0.0 - Mostly cloudy - - - - -
26/02:30am 10.9 CALM 0 0 1014.3 - 0.0 - Partly cloudy - - - - -
26/02:00am 11.0 CALM 0 0 1014.6 - 0.0 - Partly cloudy - - - - -
26/01:46am 10.8 CALM 0 0 1014.7 - 0.0 - Partly cloudy - - - - -
26/01:33am 10.7 CALM 0 0 1014.8 - 0.0 - Partly cloudy - - - - -
26/01:30am 10.6 CALM 0 0 1014.8 - 0.0 - Partly cloudy - - - - -
26/01:21am 10.8 CALM 0 0 1014.9 - 0.0 - Partly cloudy - - - - -
26/01:00am 10.9 CALM 0 0 1014.9 - 0.0 - - - - - - -
26/12:30am 11.3 CALM 0 0 1015.0 - 0.0 - Partly cloudy - - - - -
26/12:17am 11.6 CALM 0 0 1015.2 - 0.0 - Partly cloudy - - - - -
26/12:05am 11.2 CALM 0 0 1015.2 - 0.0 - Partly cloudy - - - - -
26/12:00am 11.2 CALM 0 0 1015.3 - 0.0 - Mostly clear - - - - -
 
Date/Time
EST
Temp
°C
Wind Pressure Rain since
9am
mm
Weather Cloud Vis
km
Sea
Height
m
Swell
Dir  Spd
kts
Gust
kts
hPa Trend Height
m
Period
s
Dir
25/11:34pm 12.0 CALM 0 0 1015.4 - 0.0 - - 7 - - - -
25/11:30pm 11.9 CALM 0 0 1015.4 - 0.0 - - 10 - - - -
25/11:00pm 12.3 CALM 0 0 1015.5 - 0.0 - - 10 - - - -
25/10:30pm 12.9 CALM 0 0 1015.6 - 0.0 - - 10 - - - -
25/10:00pm 14.0 CALM 0 0 1015.8 - 0.0 - - 10 - - - -
25/09:40pm 14.6 CALM 0 0 1015.6 - 0.0 - - 6 - - - -
25/09:30pm 15.1 CALM 0 0 1015.6 - 0.0 - - 10 - - - -
25/09:00pm 15.7 CALM 0 0 1015.5 - 0.0 - - 10 - - - -
25/08:30pm 16.0 N 5 6 1015.3 - 0.0 - - 10 - - - -
25/08:00pm 18.6 N 5 5 1015.1 - 0.0 - - 10 - - - -
25/07:30pm 19.4 N 5 6 1014.9 - 0.0 - - 10 - - - -
25/07:00pm 20.4 N 5 8 1014.6 - 0.0 - - 10 - - - -
25/06:30pm 21.2 N 5 6 1014.3 - 0.0 - - 10 - - - -
25/06:00pm 22.0 N 6 9 1014.1 - 0.0 - - 10 - - - -
25/05:30pm 23.2 N 9 12 1013.9 - 0.0 - - 10 - - - -
25/05:00pm 24.1 N 9 13 1013.7 - 0.0 - - 10 - - - -
25/04:30pm 25.1 N 9 15 1013.4 - 0.0 - - 10 - - - -
25/04:00pm 26.1 N 10 13 1013.4 - 0.0 - - 10 - - - -
25/03:30pm 26.9 N 9 15 1013.5 - 0.0 - - 10 - - - -
25/03:00pm 26.9 N 10 14 1013.5 - 0.0 - - 10 - - - -
25/02:30pm 27.1 NNE 11 16 1013.6 - 0.0 - - 10 - - - -
25/02:00pm 27.1 N 10 15 1014.1 - 0.0 - - 10 - - - -
25/01:30pm 27.2 N 11 17 1014.4 - 0.0 - - 10 - - - -
25/01:00pm 27.5 N 9 16 1014.7 - 0.0 - - 10 - - - -
25/12:30pm 27.3 N 10 16 1015.2 - 0.0 - - 10 - - - -
25/12:00pm 27.5 N 9 14 1015.6 - 0.0 - - 10 - - - -
25/11:30am 27.1 N 9 14 1016.1 - 0.0 - - 10 - - - -
25/11:00am 26.7 N 8 14 1016.5 - 0.0 - - 10 - - - -
25/10:30am 26.7 N 11 15 1017.0 - 0.0 - - 10 - - - -
25/10:00am 25.6 N 8 14 1017.4 - 0.0 - - 10 - - - -
25/09:30am 25.2 NNW 7 13 1017.6 - 0.0 - Partly cloudy 10 - - - -
25/09:00am 25.8 N 7 11 1017.6 - 0.0 - Partly cloudy 10 - - - -
25/08:30am 23.6 N 8 11 1017.7 - 0.0 - Partly cloudy 10 - - - -
25/08:00am 21.5 N 4 7 1017.5 - 0.0 - Partly cloudy - - - - -
25/07:30am 18.9 N 2 4 1017.1 - 0.0 - Partly cloudy - - - - -
25/07:29am 18.8 N 2 4 1017.1 - 0.0 - Partly cloudy - - - - -
25/07:00am 13.6 CALM 0 1 1016.6 - 0.0 - - - - - - -
25/06:34am 12.2 CALM 0 0 1016.5 - 0.0 - Partly cloudy - - - - -
25/06:30am 12.1 CALM 0 0 1016.5 - 0.0 - Partly cloudy - - - - -
25/06:22am 11.9 CALM 0 0 1016.4 - 0.0 - Partly cloudy - - - - -
25/06:09am 11.2 CALM 0 0 1016.4 - 0.0 - Partly cloudy - - - - -
25/06:00am 11.0 CALM 0 0 1016.3 - 0.0 - Partly cloudy - - - - -
25/05:30am 11.0 CALM 0 0 1015.9 - 0.0 - Partly cloudy - - - - -
25/05:18am 11.1 CALM 0 0 1015.8 - 0.0 - Partly cloudy - - - - -
25/05:07am 11.1 CALM 0 0 1015.7 - 0.0 - Partly cloudy - - - - -
25/05:00am 11.2 CALM 0 0 1015.6 - 0.0 - Partly cloudy - - - - -
25/04:52am 11.1 CALM 0 0 1015.6 - 0.0 - Partly cloudy - - - - -
25/04:30am 11.1 CALM 0 0 1015.4 - 0.0 - Partly cloudy - - - - -
25/04:29am 11.0 CALM 0 0 1015.4 - 0.0 - Partly cloudy - - - - -
25/04:12am 11.0 CALM 0 0 1015.2 - 0.0 - Partly cloudy - - - - -
25/04:07am 11.1 CALM 0 0 1015.2 - 0.0 - Partly cloudy - - - - -
25/04:04am 11.1 CALM 0 0 1015.2 - 0.0 - Partly cloudy - - - - -
25/04:00am 11.0 CALM 0 0 1015.1 - 0.0 - Partly cloudy - - - - -
25/03:46am 11.0 CALM 0 0 1015.1 - 0.0 - Partly cloudy - - - - -
25/03:40am 11.1 CALM 0 0 1015.1 - 0.0 - Partly cloudy - - - - -
25/03:30am 11.7 CALM 0 0 1015.0 - 0.0 - Partly cloudy - - - - -
25/03:00am 11.0 CALM 0 0 1014.9 - 0.0 - Cloudy - - - - -
25/02:30am 11.1 CALM 0 0 1014.9 - 0.0 - Partly cloudy - - - - -
25/02:00am 11.6 CALM 0 0 1015.0 - 0.0 - Cloudy - - - - -
25/01:30am 11.7 CALM 0 0 1015.2 - 0.0 - Cloudy - - - - -
25/01:06am 11.3 CALM 0 0 1015.3 - 0.0 - Partly cloudy - - - - -
25/01:00am 11.4 CALM 0 0 1015.4 - 0.0 - Partly cloudy - - - - -
25/12:30am 11.7 CALM 0 0 1015.7 - 0.0 - - - - - - -
25/12:00am 11.8 NW 2 3 1015.7 - 0.0 - - 10 - - - -
 
Date/Time
EST
Temp
°C
Wind Pressure Rain since
9am
mm
Weather Cloud Vis
km
Sea
Height
m
Swell
Dir  Spd
kts
Gust
kts
hPa Trend Height
m
Period
s
Dir
24/11:30pm 12.9 NW 3 4 1015.7 - 0.0 - - 10 - - - -
24/11:00pm 13.3 CALM 0 0 1015.8 - 0.0 - - 10 - - - -
24/10:30pm 13.7 CALM 0 0 1015.9 - 0.0 - - 10 - - - -
24/10:07pm 14.5 N 2 3 1015.9 - 0.0 - - 10 - - - -
24/10:00pm 14.5 N 2 3 1016.0 - 0.0 - - 9 - - - -
24/09:44pm 14.6 NNW 3 3 1016.0 - 0.0 - - 7 - - - -
24/09:30pm 15.6 N 3 5 1015.9 - 0.0 - - 10 - - - -
24/09:00pm 15.4 N 4 5 1015.9 - 0.0 - - 10 - - - -
24/08:30pm 16.1 NNE 4 5 1015.7 - 0.0 - - 10 - - - -
24/08:00pm 18.0 N 4 5 1015.3 - 0.0 - - 10 - - - -
24/07:30pm 19.4 N 4 5 1015.0 - 0.0 - - 10 - - - -
24/07:00pm 20.5 N 5 7 1014.6 - 0.0 - - 10 - - - -
24/06:30pm 21.4 N 6 8 1014.4 - 0.0 - - 10 - - - -
24/06:00pm 22.2 NNW 6 8 1014.2 - 0.0 - - 10 - - - -
24/05:30pm 23.2 N 7 10 1014.1 - 0.0 - - 10 - - - -
24/05:00pm 24.2 NNW 7 11 1013.9 - 0.0 - - 10 - - - -
24/04:30pm 25.3 NNW 9 13 1013.8 - 0.0 - - 10 - - - -
24/04:00pm 25.7 NNW 11 17 1013.6 - 0.0 - - 10 - - - -
24/03:30pm 26.3 NNW 11 14 1013.6 - 0.0 - - 10 - - - -
24/03:00pm 26.6 N 12 17 1013.7 - 0.0 - - 10 - - - -
24/02:30pm 27.2 N 11 17 1014.0 - 0.0 - - 10 - - - -
24/02:00pm 27.4 NNW 11 18 1014.2 - 0.0 - - 10 - - - -
24/01:30pm 27.5 NNW 9 17 1014.6 - 0.0 - - 10 - - - -
24/01:00pm 27.7 NNW 11 17 1015.0 - 0.0 - - 10 - - - -
24/12:30pm 27.5 NNW 11 17 1015.3 - 0.0 - - 10 - - - -
24/12:00pm 27.6 N 11 17 1015.6 - 0.0 - - 10 - - - -
24/11:30am 27.1 NNW 11 20 1016.1 - 0.0 - - 10 - - - -
24/11:00am 26.6 NNW 11 18 1016.5 - 0.0 - - 10 - - - -
24/10:30am 26.4 NNW 10 17 1016.9 - 0.0 - - 10 - - - -
24/10:00am 25.8 NNW 10 16 1017.2 - 0.0 - Partly cloudy 10 - - - -
24/09:30am 25.5 NNW 10 15 1017.6 - 0.0 - - 10 - - - -
24/09:00am 24.8 NNW 10 15 1017.7 - 0.0 - - 10 - - - -
24/08:30am 24.2 N 9 14 1017.7 - 0.0 - - 10 - - - -
24/08:00am 22.6 NNW 6 9 1017.6 - 0.0 - - - - - - -
24/07:30am 18.2 CALM 0 0 1017.4 - 0.0 - - - - - - -
24/07:00am 13.9 CALM 0 0 1017.2 - 0.0 - - - - - - -
24/06:35am 12.2 CALM 0 0 1016.8 - 0.0 - Partly cloudy - - - - -
24/06:30am 11.8 CALM 0 0 1016.8 - 0.0 - Partly cloudy - - - - -
24/06:00am 11.0 CALM 0 0 1016.6 - 0.0 - Partly cloudy - - - - -
24/05:59am 11.0 CALM 0 0 1016.6 - 0.0 - Partly cloudy - - - - -
24/05:47am 10.9 CALM 0 0 1016.5 - 0.0 - Partly cloudy - - - - -
24/05:30am 10.7 CALM 0 0 1016.3 - 0.0 - - - - - - -
24/05:11am 10.6 CALM 0 0 1016.2 - 0.0 - Partly cloudy - - - - -
24/05:00am 10.4 CALM 0 0 1016.2 - 0.0 - Partly cloudy - - - - -
24/04:54am 10.4 CALM 0 0 1016.1 - 0.0 - Partly cloudy - - - - -
24/04:30am 11.0 CALM 0 0 1015.8 - 0.0 - - - - - - -
24/04:00am 10.6 CALM 0 0 1015.6 - 0.0 - - - - - - -
24/03:30am 10.2 CALM 0 0 1015.5 - 0.0 - Partly cloudy - - - - -
24/03:00am 10.4 CALM 0 0 1015.5 - 0.0 - Mostly clear - - - - -
24/02:30am 10.6 CALM 0 0 1015.5 - 0.0 - - - - - - -
24/02:00am 10.6 CALM 0 0 1015.8 - 0.0 - - - - - - -
24/01:30am 10.9 CALM 0 0 1016.0 - 0.0 - - - - - - -
24/01:00am 11.3 CALM 0 0 1016.2 - 0.0 - - 7 - - - -
24/12:47am 11.8 CALM 0 0 1016.4 - 0.0 - - 7 - - - -
24/12:30am 11.3 CALM 0 0 1016.7 - 0.0 - - 10 - - - -
24/12:00am 11.9 CALM 0 0 1017.0 - 0.0 - - 7 - - - -
 
Date/Time
EST
Temp
°C
Wind Pressure Rain since
9am
mm
Weather Cloud Vis
km
Sea
Height
m
Swell
Dir  Spd
kts
Gust
kts
hPa Trend Height
m
Period
s
Dir
23/11:34pm 11.9 CALM 0 0 1017.2 - 0.0 - - 10 - - - -
23/11:30pm 12.2 CALM 0 0 1017.2 - 0.0 - - 10 - - - -
23/11:10pm 12.8 CALM 0 0 1017.2 - 0.0 - - 5 - - - -
23/11:00pm 12.4 CALM 0 0 1017.3 - 0.0 - - 10 - - - -
23/10:30pm 13.3 CALM 0 0 1017.3 - 0.0 - - 10 - - - -
23/10:00pm 13.7 CALM 0 0 1017.4 - 0.0 - - 10 - - - -
23/09:30pm 14.7 CALM 0 0 1017.6 - 0.0 - - 10 - - - -
23/09:00pm 15.6 CALM 0 0 1017.5 - 0.0 - - 10 - - - -
23/08:30pm 16.2 N 3 4 1017.4 - 0.0 - - 10 - - - -
23/08:00pm 17.0 NNE 4 5 1017.3 - 0.0 - - 10 - - - -
23/07:30pm 19.4 N 4 5 1017.0 - 0.0 - - 10 - - - -
23/07:00pm 21.0 N 5 8 1016.5 - 0.0 - - 10 - - - -
23/06:30pm 21.3 NNW 5 6 1016.2 - 0.0 - - 10 - - - -
23/06:00pm 22.2 NNW 5 7 1015.9 - 0.0 - - 10 - - - -
23/05:30pm 23.4 NNW 8 10 1015.7 - 0.0 - - 10 - - - -
23/05:00pm 24.5 NNW 8 11 1015.4 - 0.0 - - 10 - - - -
23/04:30pm 25.4 NNW 9 15 1015.2 - 0.0 - - 10 - - - -
23/04:00pm 25.8 NNW 10 14 1015.0 - 0.0 - - 10 - - - -
23/03:30pm 26.2 NNW 10 15 1015.0 - 0.0 - - 10 - - - -
23/03:00pm 26.4 N 11 16 1015.0 - 0.0 - - 10 - - - -
23/02:30pm 27.5 N 9 18 1015.1 - 0.0 - - 10 - - - -
23/02:00pm 27.3 N 10 17 1015.6 - 0.0 - - 10 - - - -

Other Formats:

Comma delimited format used in spreadsheet applications
http://www.bom.gov.au/fwo/IDQ60701/IDQ60701.94370.axf

JavaScript Object Notation format (JSON) in row-major order
http://www.bom.gov.au/fwo/IDQ60701/IDQ60701.94370.json